createdAt,value
2018-03-17T00:00:36.541Z,51.34
2018-03-17T00:03:04.060Z,50.93
2018-03-17T00:05:31.646Z,51.13
2018-03-17T00:07:59.156Z,50.85
2018-03-17T00:10:26.691Z,51.11
2018-03-17T00:12:54.238Z,50.83
2018-03-17T00:15:21.758Z,50.96
2018-03-17T00:17:49.317Z,50.95
2018-03-17T00:20:16.888Z,50.79
2018-03-17T00:22:44.398Z,50.84
2018-03-17T00:25:11.922Z,51.21
2018-03-17T00:27:39.449Z,51.15
2018-03-17T00:30:06.961Z,51.00
2018-03-17T00:32:34.482Z,50.84
2018-03-17T00:35:02.005Z,50.63
2018-03-17T00:37:29.534Z,50.76
2018-03-17T00:39:57.060Z,50.82
2018-03-17T00:42:24.582Z,50.84
2018-03-17T00:44:52.182Z,51.32
2018-03-17T00:47:19.696Z,51.51
2018-03-17T00:49:47.305Z,50.71
2018-03-17T00:52:14.904Z,51.38
2018-03-17T00:54:42.412Z,51.17
2018-03-17T00:57:09.946Z,51.23
2018-03-17T00:59:37.541Z,50.96
2018-03-17T01:02:05.105Z,50.90
2018-03-17T01:04:32.631Z,51.42
2018-03-17T01:07:00.156Z,51.01
2018-03-17T01:09:27.798Z,51.40
2018-03-17T01:11:55.308Z,51.28
2018-03-17T01:14:22.829Z,51.24
2018-03-17T01:16:50.346Z,50.91
2018-03-17T01:19:17.873Z,50.46
2018-03-17T01:21:45.394Z,50.71
2018-03-17T01:24:12.925Z,50.93
2018-03-17T01:26:40.495Z,51.45
2018-03-17T01:29:08.030Z,51.15
2018-03-17T01:31:35.593Z,51.06
2018-03-17T01:34:03.111Z,50.76
2018-03-17T01:36:30.633Z,51.04
2018-03-17T01:38:58.194Z,50.95
2018-03-17T01:41:25.712Z,51.30
2018-03-17T01:43:53.305Z,50.87
2018-03-17T01:46:20.819Z,50.93
2018-03-17T01:48:48.435Z,50.99
2018-03-17T01:51:15.966Z,50.83
2018-03-17T01:53:43.562Z,51.20
2018-03-17T01:56:11.074Z,50.90
2018-03-17T01:58:38.628Z,50.92
2018-03-17T02:01:06.164Z,51.53
2018-03-17T02:03:33.803Z,51.11
2018-03-17T02:06:01.326Z,50.99
2018-03-17T02:08:28.874Z,50.96
2018-03-17T02:10:56.385Z,50.68
2018-03-17T02:13:23.901Z,50.37
2018-03-17T02:15:51.417Z,51.17
2018-03-17T02:18:18.952Z,50.50
2018-03-17T02:20:46.464Z,51.00
2018-03-17T02:23:14.044Z,50.88
2018-03-17T02:25:41.560Z,50.47
2018-03-17T02:28:09.193Z,50.53
2018-03-17T02:30:36.725Z,50.38
2018-03-17T02:33:04.321Z,50.37
2018-03-17T02:35:31.841Z,50.75
2018-03-17T02:37:59.403Z,50.98
2018-03-17T02:40:26.999Z,50.73
2018-03-17T02:42:54.522Z,50.72
2018-03-17T02:45:22.057Z,50.68
2018-03-17T02:47:49.588Z,50.77
2018-03-17T02:50:17.234Z,50.95
2018-03-17T02:52:44.762Z,51.34
2018-03-17T02:55:12.319Z,50.84
2018-03-17T02:57:39.921Z,51.27
2018-03-17T03:00:07.441Z,51.31
2018-03-17T03:02:34.957Z,50.75
2018-03-17T03:05:02.485Z,51.10
2018-03-17T03:07:30.023Z,51.25
2018-03-17T03:09:57.533Z,51.31
2018-03-17T03:12:25.047Z,51.33
2018-03-17T03:14:52.573Z,51.10
2018-03-17T03:17:20.093Z,51.53
2018-03-17T03:19:47.619Z,51.47
2018-03-17T03:22:15.148Z,51.51
2018-03-17T03:24:42.674Z,51.41
2018-03-17T03:27:10.182Z,51.65
2018-03-17T03:29:37.710Z,51.68
2018-03-17T03:32:05.218Z,51.38
2018-03-17T03:34:32.803Z,51.27
2018-03-17T03:37:00.334Z,51.19
2018-03-17T03:39:27.927Z,51.15
2018-03-17T03:41:55.538Z,51.10
2018-03-17T03:44:23.147Z,51.66
2018-03-17T03:46:50.679Z,51.32
2018-03-17T03:49:18.188Z,51.02
2018-03-17T03:51:45.712Z,50.94
2018-03-17T03:54:13.239Z,51.13
2018-03-17T03:56:40.762Z,51.29
2018-03-17T03:59:08.403Z,51.56
2018-03-17T04:01:35.936Z,51.38
2018-03-17T04:04:03.463Z,51.37
2018-03-17T04:06:30.990Z,51.80
2018-03-17T04:08:58.513Z,51.71
2018-03-17T04:11:26.033Z,51.35
2018-03-17T04:13:53.558Z,51.75
2018-03-17T04:16:21.072Z,51.97
2018-03-17T04:18:48.592Z,51.55
2018-03-17T04:21:16.104Z,51.38
2018-03-17T04:23:43.643Z,51.61
2018-03-17T04:26:11.165Z,51.45
2018-03-17T04:28:38.701Z,51.66
2018-03-17T04:31:06.231Z,51.46
2018-03-17T04:33:33.767Z,51.32
2018-03-17T04:36:01.298Z,51.29
2018-03-17T04:38:28.850Z,51.50
2018-03-17T04:40:56.458Z,52.19
2018-03-17T04:43:24.017Z,51.95
2018-03-17T04:45:51.633Z,51.55
2018-03-17T04:48:19.149Z,51.67
2018-03-17T04:50:46.758Z,51.77
2018-03-17T04:53:14.421Z,51.57
2018-03-17T04:55:41.947Z,51.53
2018-03-17T04:58:09.472Z,51.85
2018-03-17T05:00:36.999Z,51.95
2018-03-17T05:03:04.519Z,52.03
2018-03-17T05:05:32.042Z,51.80
2018-03-17T05:07:59.590Z,51.68
2018-03-17T05:10:27.138Z,52.01
2018-03-17T05:12:54.680Z,52.34
2018-03-17T05:15:22.198Z,52.23
2018-03-17T05:17:49.800Z,52.58
2018-03-17T05:20:17.393Z,52.29
2018-03-17T05:22:44.923Z,52.47
2018-03-17T05:25:12.466Z,52.64
2018-03-17T05:27:39.996Z,52.28
2018-03-17T05:30:07.537Z,53.04
2018-03-17T05:32:35.177Z,52.81
2018-03-17T05:35:02.707Z,52.33
2018-03-17T05:37:30.234Z,52.57
2018-03-17T05:39:57.778Z,52.45
2018-03-17T05:42:25.325Z,52.07
2018-03-17T05:44:52.843Z,52.12
2018-03-17T05:47:20.356Z,52.13
2018-03-17T05:49:47.888Z,52.64
2018-03-17T05:52:15.433Z,52.51
2018-03-17T05:54:42.933Z,52.47
2018-03-17T05:57:10.444Z,52.23
2018-03-17T05:59:37.952Z,52.03
2018-03-17T06:02:05.591Z,52.63
2018-03-17T06:04:33.138Z,52.28
2018-03-17T06:07:00.647Z,52.34
2018-03-17T06:09:28.164Z,52.36
2018-03-17T06:11:55.697Z,52.02
2018-03-17T06:14:23.217Z,52.04
2018-03-17T06:16:50.733Z,52.05
2018-03-17T06:19:18.308Z,51.92
2018-03-17T06:21:45.862Z,51.73
2018-03-17T06:24:13.393Z,51.98
2018-03-17T06:26:40.918Z,51.78
2018-03-17T06:29:08.429Z,51.34
2018-03-17T06:31:36.093Z,51.72
2018-03-17T06:34:03.600Z,51.84
2018-03-17T06:36:31.124Z,51.20
2018-03-17T06:38:58.633Z,51.34
2018-03-17T06:41:26.170Z,51.39
2018-03-17T06:43:53.793Z,51.14
2018-03-17T06:46:21.315Z,50.80
2018-03-17T06:48:48.849Z,51.19
2018-03-17T06:51:16.468Z,50.59
2018-03-17T06:53:44.014Z,50.74
2018-03-17T06:56:11.542Z,50.61
2018-03-17T06:58:39.059Z,50.67
2018-03-17T07:01:06.581Z,50.89
2018-03-17T07:03:34.192Z,51.34
2018-03-17T07:06:01.714Z,51.07
2018-03-17T07:08:29.226Z,50.97
2018-03-17T07:10:56.756Z,50.96
2018-03-17T07:13:24.272Z,50.62
2018-03-17T07:15:51.866Z,50.58
2018-03-17T07:18:19.389Z,50.62
2018-03-17T07:20:46.911Z,50.48
2018-03-17T07:23:14.437Z,50.26
2018-03-17T07:25:42.005Z,49.87
2018-03-17T07:28:09.573Z,49.61
2018-03-17T07:30:37.092Z,49.50
2018-03-17T07:33:04.603Z,49.12
2018-03-17T07:35:32.121Z,48.88
2018-03-17T07:37:59.712Z,48.95
2018-03-17T07:40:27.240Z,49.30
2018-03-17T07:42:54.766Z,48.60
2018-03-17T07:45:22.330Z,47.69
2018-03-17T07:47:49.962Z,48.37
2018-03-17T07:50:17.483Z,48.54
2018-03-17T07:52:45.081Z,47.94
2018-03-17T07:55:12.601Z,47.99
2018-03-17T07:57:40.201Z,48.40
2018-03-17T08:00:07.725Z,47.63
2018-03-17T08:02:35.246Z,47.80
2018-03-17T08:05:02.779Z,47.46
2018-03-17T08:07:30.302Z,47.62
2018-03-17T08:09:57.818Z,47.42
2018-03-17T08:12:25.358Z,47.27
2018-03-17T08:14:52.877Z,46.83
2018-03-17T08:17:20.476Z,46.78
2018-03-17T08:19:48.007Z,45.76
2018-03-17T08:22:15.517Z,45.74
2018-03-17T08:24:43.037Z,45.33
2018-03-17T08:27:10.582Z,44.47
2018-03-17T08:29:38.098Z,43.75
2018-03-17T08:32:05.630Z,44.41
2018-03-17T08:34:33.172Z,43.59
2018-03-17T08:37:00.698Z,44.52
2018-03-17T08:39:28.284Z,44.62
2018-03-17T08:41:55.772Z,45.09
2018-03-17T08:44:23.293Z,45.11
2018-03-17T08:46:50.809Z,43.98
2018-03-17T08:49:18.330Z,45.18
2018-03-17T08:51:45.904Z,48.15
2018-03-17T08:54:13.433Z,46.56
2018-03-17T08:56:40.951Z,45.89
2018-03-17T08:59:08.584Z,47.14
2018-03-17T09:01:36.098Z,44.83
2018-03-17T09:04:03.627Z,44.13
2018-03-17T09:06:31.264Z,44.04
2018-03-17T09:08:58.790Z,44.20
2018-03-17T09:11:26.306Z,43.42
2018-03-17T09:13:53.825Z,43.22
2018-03-17T09:16:21.371Z,42.87
2018-03-17T09:18:48.886Z,42.48
2018-03-17T09:21:16.400Z,42.71
2018-03-17T09:23:43.908Z,42.15
2018-03-17T09:26:11.425Z,41.88
2018-03-17T09:28:38.940Z,41.55
2018-03-17T09:31:06.551Z,41.54
2018-03-17T09:33:34.114Z,40.62
2018-03-17T09:36:01.641Z,40.47
2018-03-17T09:38:29.153Z,39.71
2018-03-17T09:40:56.782Z,39.39
2018-03-17T09:43:24.360Z,38.62
2018-03-17T09:45:51.918Z,40.49
2018-03-17T09:48:19.429Z,39.42
2018-03-17T09:50:46.963Z,38.50
2018-03-17T09:53:14.518Z,39.34
2018-03-17T09:55:42.053Z,38.92
2018-03-17T09:58:09.588Z,39.61
2018-03-17T10:00:37.109Z,39.29
2018-03-17T10:03:04.629Z,39.69
2018-03-17T10:05:32.166Z,45.16
2018-03-17T10:07:59.772Z,41.08
2018-03-17T10:10:27.276Z,40.65
2018-03-17T10:12:54.833Z,41.30
2018-03-17T10:15:23.351Z,40.53
2018-03-17T10:17:50.882Z,41.14
2018-03-17T10:20:18.397Z,40.91
2018-03-17T10:22:45.931Z,40.93
2018-03-17T10:25:13.480Z,41.18
2018-03-17T10:27:41.051Z,40.72
2018-03-17T10:30:08.607Z,39.31
2018-03-17T10:32:36.166Z,38.79
2018-03-17T10:35:03.688Z,40.15
2018-03-17T10:37:31.224Z,40.45
2018-03-17T10:39:58.761Z,40.24
2018-03-17T10:42:26.280Z,40.63
2018-03-17T10:44:53.794Z,40.60
2018-03-17T10:47:21.304Z,41.21
2018-03-17T10:49:48.818Z,40.82
2018-03-17T10:52:16.339Z,40.81
2018-03-17T10:54:43.852Z,40.67
2018-03-17T10:57:11.386Z,40.51
2018-03-17T10:59:38.909Z,40.95
2018-03-17T11:02:06.418Z,40.08
2018-03-17T11:04:34.038Z,40.89
2018-03-17T11:07:02.422Z,40.79
2018-03-17T11:09:29.944Z,41.02
2018-03-17T11:11:57.480Z,41.03
2018-03-17T11:14:25.039Z,40.89
2018-03-17T11:16:52.710Z,41.31
2018-03-17T11:19:20.224Z,41.06
2018-03-17T11:21:47.737Z,40.55
2018-03-17T11:24:15.338Z,40.61
2018-03-17T11:26:42.853Z,39.99
2018-03-17T11:29:10.412Z,40.47
2018-03-17T11:31:38.515Z,40.72
2018-03-17T11:34:06.037Z,40.13
2018-03-17T11:36:33.563Z,40.50
2018-03-17T11:39:01.078Z,40.71
2018-03-17T11:41:28.619Z,40.51
2018-03-17T11:43:56.141Z,40.18
2018-03-17T11:46:23.641Z,41.28
2018-03-17T11:48:51.146Z,41.04
2018-03-17T11:51:18.665Z,40.74
2018-03-17T11:53:46.357Z,41.70
2018-03-17T11:56:13.929Z,41.47
2018-03-17T11:58:41.492Z,41.42
2018-03-17T12:01:09.137Z,41.02
2018-03-17T12:03:36.650Z,41.66
2018-03-17T12:06:04.258Z,41.71
2018-03-17T12:08:31.812Z,41.26
2018-03-17T12:10:59.318Z,40.85
2018-03-17T12:13:26.830Z,40.41
2018-03-17T12:15:54.364Z,40.77
2018-03-17T12:18:21.865Z,40.93
2018-03-17T12:20:49.376Z,40.15
2018-03-17T12:23:16.905Z,41.12
2018-03-17T12:25:44.421Z,41.42
2018-03-17T12:28:12.000Z,41.45
2018-03-17T12:30:39.514Z,41.92
2018-03-17T12:33:07.072Z,41.28
2018-03-17T12:35:34.596Z,42.30
2018-03-17T12:38:02.123Z,41.43
2018-03-17T12:40:29.713Z,41.96
2018-03-17T12:42:57.264Z,42.10
2018-03-17T12:45:24.805Z,41.31
2018-03-17T12:47:52.381Z,41.82
2018-03-17T12:50:19.906Z,41.86
2018-03-17T12:52:47.489Z,41.37
2018-03-17T12:55:15.040Z,41.50
2018-03-17T12:57:42.563Z,41.78
2018-03-17T13:00:10.102Z,41.78
2018-03-17T13:02:37.616Z,41.55
2018-03-17T13:05:05.136Z,41.47
2018-03-17T13:07:32.663Z,41.66
2018-03-17T13:10:00.221Z,41.39
2018-03-17T13:12:27.858Z,41.53
2018-03-17T13:14:55.464Z,41.57
2018-03-17T13:17:22.996Z,41.93
2018-03-17T13:19:50.558Z,41.64
2018-03-17T13:22:18.075Z,41.64
2018-03-17T13:24:45.681Z,41.42
2018-03-17T13:27:25.063Z,41.31
2018-03-17T13:29:52.678Z,41.35
2018-03-17T13:32:31.974Z,41.40
2018-03-17T13:34:59.582Z,41.59
2018-03-17T13:37:38.019Z,41.76
2018-03-17T13:40:17.426Z,41.71
2018-03-17T13:42:44.966Z,41.77
2018-03-17T13:45:12.557Z,41.73
2018-03-17T13:47:40.211Z,41.48
2018-03-17T13:50:07.746Z,41.10
2018-03-17T13:52:35.338Z,41.40
2018-03-17T13:55:02.866Z,41.68
2018-03-17T13:57:30.391Z,42.36
2018-03-17T13:59:57.916Z,42.18
2018-03-17T14:02:25.441Z,42.39
2018-03-17T14:04:52.971Z,42.24
2018-03-17T14:07:20.590Z,42.37
2018-03-17T14:09:48.102Z,42.34
2018-03-17T14:12:15.710Z,42.21
2018-03-17T14:14:43.223Z,42.54
2018-03-17T14:17:10.797Z,42.78
2018-03-17T14:19:38.327Z,42.86
2018-03-17T14:22:05.881Z,43.23
2018-03-17T14:24:33.503Z,43.56
2018-03-17T14:27:01.021Z,43.33
2018-03-17T14:29:28.622Z,43.50
2018-03-17T14:31:56.189Z,43.71
2018-03-17T14:34:23.717Z,44.28
2018-03-17T14:36:51.237Z,44.09
2018-03-17T14:39:18.764Z,44.10
2018-03-17T14:41:46.294Z,44.12
2018-03-17T14:44:13.830Z,44.35
2018-03-17T14:46:41.360Z,44.14
2018-03-17T14:49:08.898Z,44.56
2018-03-17T14:51:36.427Z,44.45
2018-03-17T14:54:03.956Z,44.76
2018-03-17T14:56:31.482Z,44.65
2018-03-17T14:58:59.026Z,44.48
2018-03-17T15:01:26.550Z,44.44
2018-03-17T15:03:54.088Z,44.48
2018-03-17T15:06:21.608Z,44.52
2018-03-17T15:08:49.147Z,44.41
2018-03-17T15:11:16.670Z,44.71
2018-03-17T15:13:44.228Z,44.90
2018-03-17T15:16:11.778Z,45.16
2018-03-17T15:18:39.345Z,44.49
2018-03-17T15:21:06.862Z,44.08
2018-03-17T15:23:34.368Z,44.27
2018-03-17T15:26:01.876Z,44.00
2018-03-17T15:28:29.401Z,44.02
2018-03-17T15:30:56.934Z,44.15
2018-03-17T15:33:24.460Z,44.01
2018-03-17T15:35:51.966Z,43.90
2018-03-17T15:38:19.485Z,44.22
2018-03-17T15:40:47.050Z,44.67
2018-03-17T15:43:14.590Z,44.37
2018-03-17T15:45:42.130Z,44.12
2018-03-17T15:48:09.694Z,43.96
2018-03-17T15:50:37.288Z,44.09
2018-03-17T15:53:04.834Z,44.21
2018-03-17T15:55:32.365Z,44.10
2018-03-17T15:57:59.895Z,44.13
2018-03-17T16:00:27.423Z,44.13
2018-03-17T16:02:54.944Z,43.98
2018-03-17T16:05:22.543Z,44.35
2018-03-17T16:07:50.065Z,43.57
2018-03-17T16:10:17.713Z,43.68
2018-03-17T16:12:45.198Z,43.81
2018-03-17T16:15:12.715Z,43.31
2018-03-17T16:17:40.349Z,43.64
2018-03-17T16:20:07.906Z,43.36
2018-03-17T16:22:35.433Z,43.17
2018-03-17T16:25:02.948Z,42.88
2018-03-17T16:27:30.468Z,42.69
2018-03-17T16:29:58.042Z,43.25
2018-03-17T16:32:25.570Z,43.18
2018-03-17T16:34:53.107Z,42.18
2018-03-17T16:37:20.647Z,42.05
2018-03-17T16:39:48.183Z,41.54
2018-03-17T16:42:15.709Z,41.33
2018-03-17T16:44:43.406Z,40.56
2018-03-17T16:47:10.930Z,41.35
2018-03-17T16:49:38.510Z,40.67
2018-03-17T16:52:06.292Z,40.17
2018-03-17T16:54:33.819Z,40.24
2018-03-17T16:57:01.343Z,40.88
2018-03-17T16:59:28.966Z,40.58
2018-03-17T17:01:56.500Z,40.07
2018-03-17T17:04:24.091Z,39.80
2018-03-17T17:06:51.618Z,40.04
2018-03-17T17:09:19.132Z,40.03
2018-03-17T17:11:46.664Z,39.63
2018-03-17T17:14:14.182Z,40.16
2018-03-17T17:16:41.865Z,39.67
2018-03-17T17:19:09.385Z,40.57
2018-03-17T17:21:37.010Z,39.71
2018-03-17T17:24:04.553Z,39.91
2018-03-17T17:26:32.116Z,39.40
2018-03-17T17:28:59.685Z,39.87
2018-03-17T17:31:27.213Z,39.78
2018-03-17T17:33:54.762Z,39.70
2018-03-17T17:36:22.299Z,39.57
2018-03-17T17:38:49.930Z,39.57
2018-03-17T17:41:17.458Z,39.27
2018-03-17T17:43:45.037Z,39.80
2018-03-17T17:46:13.663Z,39.74
2018-03-17T17:48:41.181Z,39.96
2018-03-17T17:51:08.726Z,39.72
2018-03-17T17:53:36.245Z,40.40
2018-03-17T17:56:03.775Z,39.93
2018-03-17T17:58:31.302Z,40.10
2018-03-17T18:00:58.838Z,40.42
2018-03-17T18:03:26.536Z,40.37
2018-03-17T18:05:54.100Z,40.13
2018-03-17T18:08:21.621Z,40.43
2018-03-17T18:10:49.162Z,40.67
2018-03-17T18:13:16.696Z,40.65
2018-03-17T18:15:44.224Z,40.66
2018-03-17T18:18:11.743Z,40.75
2018-03-17T18:20:39.389Z,41.05
2018-03-17T18:23:06.906Z,40.96
2018-03-17T18:25:34.500Z,41.29
2018-03-17T18:28:02.025Z,41.50
2018-03-17T18:30:29.581Z,41.31
2018-03-17T18:32:57.111Z,41.11
2018-03-17T18:35:24.651Z,41.45
2018-03-17T18:37:52.228Z,41.18
2018-03-17T18:40:19.855Z,41.29
2018-03-17T18:42:47.378Z,41.21
2018-03-17T18:45:14.972Z,41.61
2018-03-17T18:47:42.532Z,41.22
2018-03-17T18:50:10.093Z,41.72
2018-03-17T18:52:37.652Z,41.54
2018-03-17T18:55:05.212Z,41.30
2018-03-17T18:57:32.743Z,41.52
2018-03-17T19:00:00.292Z,41.20
2018-03-17T19:02:27.858Z,41.63
2018-03-17T19:04:55.390Z,41.65
2018-03-17T19:07:22.920Z,42.16
2018-03-17T19:09:50.435Z,41.85
2018-03-17T19:12:18.008Z,41.96
2018-03-17T19:14:45.589Z,41.55
2018-03-17T19:17:13.118Z,41.65
2018-03-17T19:19:40.645Z,41.87
2018-03-17T19:22:08.222Z,41.75
2018-03-17T19:24:35.764Z,41.82
2018-03-17T19:27:03.388Z,41.79
2018-03-17T19:29:30.918Z,41.58
2018-03-17T19:31:58.518Z,41.86
2018-03-17T19:34:26.038Z,41.75
2018-03-17T19:36:53.552Z,42.06
2018-03-17T19:39:21.082Z,41.97
2018-03-17T19:41:48.617Z,41.88
2018-03-17T19:44:16.267Z,42.14
2018-03-17T19:46:43.723Z,42.24
2018-03-17T19:49:11.325Z,42.32
2018-03-17T19:51:38.990Z,42.43
2018-03-17T19:54:06.506Z,42.48
2018-03-17T19:56:34.042Z,42.44
2018-03-17T21:20:58.526Z,43.25
2018-03-17T21:23:26.053Z,42.93
2018-03-17T21:25:53.577Z,42.93
2018-03-17T21:28:21.109Z,42.99
2018-03-17T21:30:48.640Z,42.47
2018-03-17T21:33:16.161Z,42.75
2018-03-17T21:35:43.668Z,42.42
2018-03-17T21:38:11.198Z,42.51
2018-03-17T21:40:38.735Z,42.47
2018-03-17T21:43:06.282Z,42.83
2018-03-17T21:45:33.805Z,42.70
2018-03-17T21:48:01.341Z,42.34
2018-03-17T21:50:29.179Z,42.56
2018-03-17T21:52:56.706Z,42.39
2018-03-17T21:55:24.256Z,43.08
2018-03-17T21:57:51.782Z,42.45
2018-03-17T22:00:19.320Z,42.41
2018-03-17T22:02:46.841Z,42.64
2018-03-17T22:05:14.360Z,42.77
2018-03-17T22:07:41.891Z,42.68
2018-03-17T22:10:09.485Z,42.53
2018-03-17T22:12:37.011Z,42.70
2018-03-17T22:15:04.528Z,42.89
2018-03-17T22:17:32.058Z,42.36
2018-03-17T22:19:59.589Z,42.46
2018-03-17T22:22:27.118Z,42.29
2018-03-17T22:24:54.646Z,42.55
2018-03-17T22:27:22.188Z,42.96
2018-03-17T22:29:49.727Z,42.54
2018-03-17T22:32:17.260Z,42.77
2018-03-17T22:34:44.792Z,42.79
2018-03-17T22:37:12.315Z,42.59
2018-03-17T22:39:39.835Z,42.89
2018-03-17T22:42:07.370Z,42.66
2018-03-17T22:44:34.885Z,42.70
2018-03-17T22:47:02.419Z,42.94
2018-03-17T22:49:29.938Z,42.65
2018-03-17T22:51:57.450Z,43.04
2018-03-17T22:54:24.970Z,42.93
2018-03-17T22:56:52.505Z,42.98
2018-03-17T22:59:20.025Z,43.16
2018-03-17T23:01:47.549Z,42.99
2018-03-17T23:04:15.074Z,43.58
2018-03-17T23:06:42.601Z,43.25
2018-03-17T23:09:10.118Z,43.37
2018-03-17T23:11:37.666Z,43.27
2018-03-17T23:14:05.205Z,43.40
2018-03-17T23:16:32.755Z,43.53
2018-03-17T23:19:00.268Z,43.93
2018-03-17T23:21:27.801Z,43.31
2018-03-17T23:23:55.321Z,43.64
2018-03-17T23:26:22.877Z,43.79
2018-03-17T23:28:50.394Z,43.93
2018-03-17T23:31:17.947Z,44.16
2018-03-17T23:33:45.486Z,43.92
2018-03-17T23:36:13.046Z,44.16
2018-03-17T23:38:40.566Z,43.95
2018-03-17T23:41:08.085Z,44.01
2018-03-17T23:43:35.623Z,44.13
2018-03-17T23:46:03.142Z,44.26
2018-03-17T23:48:30.652Z,44.32
2018-03-17T23:50:58.232Z,44.44
2018-03-17T23:53:25.755Z,44.43
2018-03-17T23:55:53.274Z,44.40
2018-03-17T23:58:20.792Z,44.74
